sensor_id;sensor_type;location;lat;lon;timestamp;pressure;altitude;pressure_sealevel;temperature
69785;BMP280;14177;51.520;6.764;2024-03-02T00:00:28;99816.97;;;8.50
69785;BMP280;14177;51.520;6.764;2024-03-02T00:02:56;99817.03;;;8.49
69785;BMP280;14177;51.520;6.764;2024-03-02T00:05:23;99814.41;;;8.50
69785;BMP280;14177;51.520;6.764;2024-03-02T00:07:57;99807.41;;;8.52
69785;BMP280;14177;51.520;6.764;2024-03-02T00:10:27;99805.53;;;8.56
69785;BMP280;14177;51.520;6.764;2024-03-02T00:12:58;99797.84;;;8.54
69785;BMP280;14177;51.520;6.764;2024-03-02T00:18:01;99808.09;;;8.57
69785;BMP280;14177;51.520;6.764;2024-03-02T00:20:29;99802.78;;;8.60
69785;BMP280;14177;51.520;6.764;2024-03-02T00:23:07;99793.16;;;8.64
69785;BMP280;14177;51.520;6.764;2024-03-02T00:25:55;99786.91;;;8.69
69785;BMP280;14177;51.520;6.764;2024-03-02T00:28:32;99784.06;;;8.75
69785;BMP280;14177;51.520;6.764;2024-03-02T00:31:06;99771.13;;;8.75
69785;BMP280;14177;51.520;6.764;2024-03-02T00:33:43;99772.81;;;8.76
69785;BMP280;14177;51.520;6.764;2024-03-02T00:36:14;99781.22;;;8.81
69785;BMP280;14177;51.520;6.764;2024-03-02T00:38:47;99788.97;;;8.83
69785;BMP280;14177;51.520;6.764;2024-03-02T00:41:27;99769.72;;;8.88
69785;BMP280;14177;51.520;6.764;2024-03-02T00:44:00;99784.25;;;8.92
69785;BMP280;14177;51.520;6.764;2024-03-02T00:46:34;99783.34;;;8.93
69785;BMP280;14177;51.520;6.764;2024-03-02T00:51:38;99770.81;;;9.04
69785;BMP280;14177;51.520;6.764;2024-03-02T00:54:09;99773.28;;;9.07
69785;BMP280;14177;51.520;6.764;2024-03-02T00:56:36;99769.00;;;9.06
69785;BMP280;14177;51.520;6.764;2024-03-02T00:59:03;99777.50;;;9.10
69785;BMP280;14177;51.520;6.764;2024-03-02T01:01:30;99780.16;;;9.08
69785;BMP280;14177;51.520;6.764;2024-03-02T01:03:57;99785.00;;;9.16
69785;BMP280;14177;51.520;6.764;2024-03-02T01:06:24;99783.97;;;9.20
69785;BMP280;14177;51.520;6.764;2024-03-02T01:08:52;99782.13;;;9.23
69785;BMP280;14177;51.520;6.764;2024-03-02T01:11:20;99787.97;;;9.28
69785;BMP280;14177;51.520;6.764;2024-03-02T01:13:51;99793.94;;;9.30
69785;BMP280;14177;51.520;6.764;2024-03-02T01:16:19;99793.81;;;9.33
69785;BMP280;14177;51.520;6.764;2024-03-02T01:18:47;99782.41;;;9.37
69785;BMP280;14177;51.520;6.764;2024-03-02T01:21:14;99788.38;;;9.39
69785;BMP280;14177;51.520;6.764;2024-03-02T01:23:42;99789.94;;;9.43
69785;BMP280;14177;51.520;6.764;2024-03-02T01:26:09;99779.47;;;9.45
69785;BMP280;14177;51.520;6.764;2024-03-02T01:28:36;99784.63;;;9.46
69785;BMP280;14177;51.520;6.764;2024-03-02T01:31:03;99782.84;;;9.47
69785;BMP280;14177;51.520;6.764;2024-03-02T01:33:30;99782.03;;;9.46
69785;BMP280;14177;51.520;6.764;2024-03-02T01:35:57;99776.13;;;9.43
69785;BMP280;14177;51.520;6.764;2024-03-02T01:38:24;99777.94;;;9.41
69785;BMP280;14177;51.520;6.764;2024-03-02T01:40:51;99778.84;;;9.40
69785;BMP280;14177;51.520;6.764;2024-03-02T01:43:18;99781.63;;;9.35
69785;BMP280;14177;51.520;6.764;2024-03-02T01:45:47;99780.84;;;9.33
69785;BMP280;14177;51.520;6.764;2024-03-02T01:48:14;99775.72;;;9.32
69785;BMP280;14177;51.520;6.764;2024-03-02T01:50:41;99782.66;;;9.31
69785;BMP280;14177;51.520;6.764;2024-03-02T01:53:09;99783.56;;;9.30
69785;BMP280;14177;51.520;6.764;2024-03-02T01:55:36;99780.25;;;9.27
69785;BMP280;14177;51.520;6.764;2024-03-02T01:58:03;99779.34;;;9.28
69785;BMP280;14177;51.520;6.764;2024-03-02T02:00:31;99783.69;;;9.27
69785;BMP280;14177;51.520;6.764;2024-03-02T02:02:59;99782.66;;;9.31
69785;BMP280;14177;51.520;6.764;2024-03-02T02:05:26;99781.75;;;9.32
69785;BMP280;14177;51.520;6.764;2024-03-02T02:07:53;99781.66;;;9.34
69785;BMP280;14177;51.520;6.764;2024-03-02T02:10:20;99782.47;;;9.36
69785;BMP280;14177;51.520;6.764;2024-03-02T02:12:47;99779.88;;;9.36
69785;BMP280;14177;51.520;6.764;2024-03-02T02:15:23;99770.47;;;9.33
69785;BMP280;14177;51.520;6.764;2024-03-02T02:17:51;99774.88;;;9.31
69785;BMP280;14177;51.520;6.764;2024-03-02T02:20:18;99773.97;;;9.32
69785;BMP280;14177;51.520;6.764;2024-03-02T02:23:03;99777.41;;;9.33
69785;BMP280;14177;51.520;6.764;2024-03-02T02:25:32;99771.31;;;9.34
69785;BMP280;14177;51.520;6.764;2024-03-02T02:27:59;99775.47;;;9.38
69785;BMP280;14177;51.520;6.764;2024-03-02T02:30:30;99786.56;;;9.41
69785;BMP280;14177;51.520;6.764;2024-03-02T02:32:57;99780.34;;;9.45
69785;BMP280;14177;51.520;6.764;2024-03-02T02:35:25;99765.63;;;9.46
69785;BMP280;14177;51.520;6.764;2024-03-02T02:37:54;99777.69;;;9.47
69785;BMP280;14177;51.520;6.764;2024-03-02T02:40:22;99779.28;;;9.49
69785;BMP280;14177;51.520;6.764;2024-03-02T02:42:50;99770.53;;;9.52
69785;BMP280;14177;51.520;6.764;2024-03-02T02:45:19;99769.69;;;9.51
69785;BMP280;14177;51.520;6.764;2024-03-02T02:47:46;99785.25;;;9.51
69785;BMP280;14177;51.520;6.764;2024-03-02T02:50:13;99765.41;;;9.50
69785;BMP280;14177;51.520;6.764;2024-03-02T02:52:42;99767.09;;;9.51
69785;BMP280;14177;51.520;6.764;2024-03-02T02:55:11;99767.09;;;9.51
69785;BMP280;14177;51.520;6.764;2024-03-02T02:57:41;99761.13;;;9.49
69785;BMP280;14177;51.520;6.764;2024-03-02T03:00:14;99759.44;;;9.48
69785;BMP280;14177;51.520;6.764;2024-03-02T03:02:47;99768.91;;;9.49
69785;BMP280;14177;51.520;6.764;2024-03-02T03:05:16;99769.00;;;9.48
69785;BMP280;14177;51.520;6.764;2024-03-02T03:07:43;99759.44;;;9.48
69785;BMP280;14177;51.520;6.764;2024-03-02T03:10:12;99762.03;;;9.48
69785;BMP280;14177;51.520;6.764;2024-03-02T03:12:40;99768.09;;;9.49
69785;BMP280;14177;51.520;6.764;2024-03-02T03:15:10;99771.50;;;9.49
69785;BMP280;14177;51.520;6.764;2024-03-02T03:17:38;99771.50;;;9.49
69785;BMP280;14177;51.520;6.764;2024-03-02T03:20:06;99783.63;;;9.49
69785;BMP280;14177;51.520;6.764;2024-03-02T03:22:37;99768.22;;;9.46
69785;BMP280;14177;51.520;6.764;2024-03-02T03:25:05;99762.91;;;9.49
69785;BMP280;14177;51.520;6.764;2024-03-02T03:27:34;99766.31;;;9.49
69785;BMP280;14177;51.520;6.764;2024-03-02T03:30:01;99769.91;;;9.47
69785;BMP280;14177;51.520;6.764;2024-03-02T03:32:28;99783.84;;;9.44
69785;BMP280;14177;51.520;6.764;2024-03-02T03:34:55;99787.38;;;9.42
69785;BMP280;14177;51.520;6.764;2024-03-02T03:37:22;99794.34;;;9.41
69785;BMP280;14177;51.520;6.764;2024-03-02T03:39:49;99783.97;;;9.41
69785;BMP280;14177;51.520;6.764;2024-03-02T03:42:16;99782.28;;;9.40
69785;BMP280;14177;51.520;6.764;2024-03-02T03:44:43;99789.19;;;9.40
69785;BMP280;14177;51.520;6.764;2024-03-02T03:47:10;99791.78;;;9.40
69785;BMP280;14177;51.520;6.764;2024-03-02T03:49:37;99791.88;;;9.38
69785;BMP280;14177;51.520;6.764;2024-03-02T03:52:04;99797.09;;;9.37
69785;BMP280;14177;51.520;6.764;2024-03-02T03:54:31;99791.91;;;9.37
69785;BMP280;14177;51.520;6.764;2024-03-02T03:56:58;99800.56;;;9.37
69785;BMP280;14177;51.520;6.764;2024-03-02T03:59:25;99799.78;;;9.35
69785;BMP280;14177;51.520;6.764;2024-03-02T04:01:52;99793.81;;;9.33
69785;BMP280;14177;51.520;6.764;2024-03-02T04:04:20;99800.03;;;9.29
69785;BMP280;14177;51.520;6.764;2024-03-02T04:06:47;99798.59;;;9.22
69785;BMP280;14177;51.520;6.764;2024-03-02T04:09:14;99790.97;;;9.18
69785;BMP280;14177;51.520;6.764;2024-03-02T04:11:41;99789.53;;;9.11
69785;BMP280;14177;51.520;6.764;2024-03-02T04:14:08;99803.66;;;9.04
69785;BMP280;14177;51.520;6.764;2024-03-02T04:16:35;99800.44;;;8.97
69785;BMP280;14177;51.520;6.764;2024-03-02T04:19:02;99796.28;;;8.93
69785;BMP280;14177;51.520;6.764;2024-03-02T04:21:31;99806.91;;;8.87
69785;BMP280;14177;51.520;6.764;2024-03-02T04:23:58;99803.63;;;8.82
69785;BMP280;14177;51.520;6.764;2024-03-02T04:26:26;99795.97;;;8.79
69785;BMP280;14177;51.520;6.764;2024-03-02T04:28:53;99798.84;;;8.73
69785;BMP280;14177;51.520;6.764;2024-03-02T04:31:21;99799.06;;;8.67
69785;BMP280;14177;51.520;6.764;2024-03-02T04:33:48;99793.28;;;8.61
69785;BMP280;14177;51.520;6.764;2024-03-02T04:36:15;99796.06;;;8.56
69785;BMP280;14177;51.520;6.764;2024-03-02T04:38:42;99801.34;;;8.53
69785;BMP280;14177;51.520;6.764;2024-03-02T04:41:09;99804.94;;;8.49
69785;BMP280;14177;51.520;6.764;2024-03-02T04:43:36;99806.75;;;8.47
69785;BMP280;14177;51.520;6.764;2024-03-02T04:46:06;99809.34;;;8.47
69785;BMP280;14177;51.520;6.764;2024-03-02T04:48:34;99808.53;;;8.45
69785;BMP280;14177;51.520;6.764;2024-03-02T04:51:01;99801.69;;;8.44
69785;BMP280;14177;51.520;6.764;2024-03-02T04:53:28;99812.03;;;8.44
69785;BMP280;14177;51.520;6.764;2024-03-02T04:55:55;99818.09;;;8.43
69785;BMP280;14177;51.520;6.764;2024-03-02T04:58:41;99828.38;;;8.45
69785;BMP280;14177;51.520;6.764;2024-03-02T05:01:08;99818.94;;;8.44
69785;BMP280;14177;51.520;6.764;2024-03-02T05:03:35;99815.63;;;8.41
69785;BMP280;14177;51.520;6.764;2024-03-02T05:06:03;99810.69;;;8.35
69785;BMP280;14177;51.520;6.764;2024-03-02T05:08:30;99814.28;;;8.31
69785;BMP280;14177;51.520;6.764;2024-03-02T05:10:57;99811.97;;;8.23
69785;BMP280;14177;51.520;6.764;2024-03-02T05:13:43;99821.69;;;8.17
69785;BMP280;14177;51.520;6.764;2024-03-02T05:16:10;99826.94;;;8.14
69785;BMP280;14177;51.520;6.764;2024-03-02T05:18:38;99833.19;;;8.08
69785;BMP280;14177;51.520;6.764;2024-03-02T05:21:05;99828.22;;;8.02
69785;BMP280;14177;51.520;6.764;2024-03-02T05:23:32;99819.91;;;7.94
69785;BMP280;14177;51.520;6.764;2024-03-02T05:26:00;99825.28;;;7.88
69785;BMP280;14177;51.520;6.764;2024-03-02T05:28:27;99825.47;;;7.82
69785;BMP280;14177;51.520;6.764;2024-03-02T05:30:54;99815.31;;;7.78
69785;BMP280;14177;51.520;6.764;2024-03-02T05:33:20;99831.94;;;7.71
69785;BMP280;14177;51.520;6.764;2024-03-02T05:35:49;99839.00;;;7.66
69785;BMP280;14177;51.520;6.764;2024-03-02T05:38:19;99837.31;;;7.65
69785;BMP280;14177;51.520;6.764;2024-03-02T05:40:46;99836.47;;;7.64
69785;BMP280;14177;51.520;6.764;2024-03-02T05:43:13;99839.16;;;7.61
69785;BMP280;14177;51.520;6.764;2024-03-02T05:45:40;99835.81;;;7.58
69785;BMP280;14177;51.520;6.764;2024-03-02T05:48:07;99835.09;;;7.54
69785;BMP280;14177;51.520;6.764;2024-03-02T05:50:35;99828.34;;;7.50
69785;BMP280;14177;51.520;6.764;2024-03-02T05:53:02;99829.25;;;7.48
69785;BMP280;14177;51.520;6.764;2024-03-02T05:55:29;99820.72;;;7.46
69785;BMP280;14177;51.520;6.764;2024-03-02T05:57:56;99832.75;;;7.47
69785;BMP280;14177;51.520;6.764;2024-03-02T06:00:29;99830.94;;;7.49
69785;BMP280;14177;51.520;6.764;2024-03-02T06:02:58;99829.97;;;7.53
69785;BMP280;14177;51.520;6.764;2024-03-02T06:05:25;99832.44;;;7.56
69785;BMP280;14177;51.520;6.764;2024-03-02T06:07:52;99849.63;;;7.57
69785;BMP280;14177;51.520;6.764;2024-03-02T06:10:19;99846.06;;;7.61
69785;BMP280;14177;51.520;6.764;2024-03-02T06:12:47;99848.59;;;7.62
69785;BMP280;14177;51.520;6.764;2024-03-02T06:15:14;99849.44;;;7.63
69785;BMP280;14177;51.520;6.764;2024-03-02T06:17:41;99848.59;;;7.62
69785;BMP280;14177;51.520;6.764;2024-03-02T06:20:09;99856.41;;;7.61
69785;BMP280;14177;51.520;6.764;2024-03-02T06:22:37;99859.69;;;7.66
69785;BMP280;14177;51.520;6.764;2024-03-02T06:25:04;99863.16;;;7.65
69785;BMP280;14177;51.520;6.764;2024-03-02T06:27:31;99859.78;;;7.63
69785;BMP280;14177;51.520;6.764;2024-03-02T06:29:58;99848.44;;;7.67
69785;BMP280;14177;51.520;6.764;2024-03-02T06:32:25;99860.41;;;7.69
69785;BMP280;14177;51.520;6.764;2024-03-02T06:34:52;99857.00;;;7.69
69785;BMP280;14177;51.520;6.764;2024-03-02T06:37:19;99856.91;;;7.70
69785;BMP280;14177;51.520;6.764;2024-03-02T06:39:46;99864.69;;;7.70
69785;BMP280;14177;51.520;6.764;2024-03-02T06:42:13;99860.25;;;7.74
69785;BMP280;14177;51.520;6.764;2024-03-02T06:44:40;99871.50;;;7.73
69785;BMP280;14177;51.520;6.764;2024-03-02T06:47:06;99878.34;;;7.74
69785;BMP280;14177;51.520;6.764;2024-03-02T06:49:33;99891.28;;;7.74
69785;BMP280;14177;51.520;6.764;2024-03-02T06:52:02;99889.53;;;7.74
69785;BMP280;14177;51.520;6.764;2024-03-02T06:54:29;99892.13;;;7.74
69785;BMP280;14177;51.520;6.764;2024-03-02T06:56:56;99885.22;;;7.75
69785;BMP280;14177;51.520;6.764;2024-03-02T06:59:23;99897.06;;;7.82
69785;BMP280;14177;51.520;6.764;2024-03-02T07:01:51;99888.19;;;7.89
69785;BMP280;14177;51.520;6.764;2024-03-02T07:04:18;99895.75;;;7.95
69785;BMP280;14177;51.520;6.764;2024-03-02T07:06:45;99901.06;;;8.15
69785;BMP280;14177;51.520;6.764;2024-03-02T07:09:12;99905.41;;;8.39
69785;BMP280;14177;51.520;6.764;2024-03-02T07:11:39;99906.13;;;8.66
69785;BMP280;14177;51.520;6.764;2024-03-02T07:14:06;99914.72;;;8.90
69785;BMP280;14177;51.520;6.764;2024-03-02T07:16:33;99913.41;;;9.01
69785;BMP280;14177;51.520;6.764;2024-03-02T07:19:01;99911.72;;;9.00
69785;BMP280;14177;51.520;6.764;2024-03-02T07:21:29;99917.97;;;8.95
69785;BMP280;14177;51.520;6.764;2024-03-02T07:23:56;99915.56;;;8.90
69785;BMP280;14177;51.520;6.764;2024-03-02T07:26:23;99919.03;;;8.89
69785;BMP280;14177;51.520;6.764;2024-03-02T07:28:53;99925.75;;;8.95
69785;BMP280;14177;51.520;6.764;2024-03-02T07:31:20;99931.97;;;9.12
69785;BMP280;14177;51.520;6.764;2024-03-02T07:33:47;99932.63;;;9.40
69785;BMP280;14177;51.520;6.764;2024-03-02T07:36:14;99936.50;;;9.50
69785;BMP280;14177;51.520;6.764;2024-03-02T07:38:43;99922.69;;;9.71
69785;BMP280;14177;51.520;6.764;2024-03-02T07:41:11;99928.75;;;9.71
69785;BMP280;14177;51.520;6.764;2024-03-02T07:43:38;99928.75;;;9.71
69785;BMP280;14177;51.520;6.764;2024-03-02T07:46:07;99929.44;;;9.75
69785;BMP280;14177;51.520;6.764;2024-03-02T07:48:34;99923.75;;;9.87
69785;BMP280;14177;51.520;6.764;2024-03-02T07:51:01;99932.91;;;9.95
69785;BMP280;14177;51.520;6.764;2024-03-02T07:53:29;99932.00;;;10.18
69785;BMP280;14177;51.520;6.764;2024-03-02T07:55:56;99935.69;;;10.12
69785;BMP280;14177;51.520;6.764;2024-03-02T07:58:29;99936.91;;;10.04
69785;BMP280;14177;51.520;6.764;2024-03-02T08:00:57;99936.28;;;9.97
69785;BMP280;14177;51.520;6.764;2024-03-02T08:03:24;99943.91;;;10.02
69785;BMP280;14177;51.520;6.764;2024-03-02T08:05:52;99947.69;;;9.93
69785;BMP280;14177;51.520;6.764;2024-03-02T08:08:19;99961.03;;;9.84
69785;BMP280;14177;51.520;6.764;2024-03-02T08:10:46;99954.47;;;9.76
69785;BMP280;14177;51.520;6.764;2024-03-02T08:13:13;99959.78;;;9.73
69785;BMP280;14177;51.520;6.764;2024-03-02T08:15:41;99970.94;;;9.75
69785;BMP280;14177;51.520;6.764;2024-03-02T08:18:08;99980.81;;;9.87
69785;BMP280;14177;51.520;6.764;2024-03-02T08:20:35;99974.69;;;10.11
69785;BMP280;14177;51.520;6.764;2024-03-02T08:23:02;99960.72;;;10.13
69785;BMP280;14177;51.520;6.764;2024-03-02T08:25:29;99964.03;;;10.17
69785;BMP280;14177;51.520;6.764;2024-03-02T08:27:56;99970.16;;;10.16
69785;BMP280;14177;51.520;6.764;2024-03-02T08:30:24;99963.56;;;10.07
69785;BMP280;14177;51.520;6.764;2024-03-02T08:32:51;99970.69;;;10.02
69785;BMP280;14177;51.520;6.764;2024-03-02T08:35:18;99969.94;;;9.99
69785;BMP280;14177;51.520;6.764;2024-03-02T08:37:45;99970.06;;;9.96
69785;BMP280;14177;51.520;6.764;2024-03-02T08:40:13;99963.19;;;10.16
69785;BMP280;14177;51.520;6.764;2024-03-02T08:42:44;99969.91;;;10.60
69785;BMP280;14177;51.520;6.764;2024-03-02T08:45:12;99955.88;;;11.02
69785;BMP280;14177;51.520;6.764;2024-03-02T08:47:40;99951.72;;;11.35
69785;BMP280;14177;51.520;6.764;2024-03-02T08:50:07;99950.47;;;11.62
69785;BMP280;14177;51.520;6.764;2024-03-02T08:52:35;99947.25;;;11.74
69785;BMP280;14177;51.520;6.764;2024-03-02T08:55:03;99953.50;;;11.89
69785;BMP280;14177;51.520;6.764;2024-03-02T08:57:31;99954.84;;;12.12
69785;BMP280;14177;51.520;6.764;2024-03-02T08:59:59;99962.47;;;12.17
69785;BMP280;14177;51.520;6.764;2024-03-02T09:02:26;99962.63;;;12.31
69785;BMP280;14177;51.520;6.764;2024-03-02T09:04:53;99968.56;;;12.50
69785;BMP280;14177;51.520;6.764;2024-03-02T09:07:20;99960.59;;;12.53
69785;BMP280;14177;51.520;6.764;2024-03-02T09:09:47;99961.75;;;12.64
69785;BMP280;14177;51.520;6.764;2024-03-02T09:12:15;99968.66;;;12.81
69785;BMP280;14177;51.520;6.764;2024-03-02T09:14:42;99963.66;;;12.93
69785;BMP280;14177;51.520;6.764;2024-03-02T09:17:09;99960.69;;;13.01
69785;BMP280;14177;51.520;6.764;2024-03-02T09:19:40;99965.91;;;13.01
69785;BMP280;14177;51.520;6.764;2024-03-02T09:22:07;99966.66;;;13.18
69785;BMP280;14177;51.520;6.764;2024-03-02T09:24:34;99967.59;;;13.32
69785;BMP280;14177;51.520;6.764;2024-03-02T09:27:01;99958.25;;;13.59
69785;BMP280;14177;51.520;6.764;2024-03-02T09:29:28;99965.19;;;13.90
69785;BMP280;14177;51.520;6.764;2024-03-02T09:31:56;99957.91;;;14.10
69785;BMP280;14177;51.520;6.764;2024-03-02T09:34:23;99954.41;;;13.96
69785;BMP280;14177;51.520;6.764;2024-03-02T09:36:51;99974.44;;;13.95
69785;BMP280;14177;51.520;6.764;2024-03-02T09:39:19;99966.94;;;14.05
69785;BMP280;14177;51.520;6.764;2024-03-02T09:41:48;99972.31;;;14.17
69785;BMP280;14177;51.520;6.764;2024-03-02T09:44:15;99963.09;;;14.26
69785;BMP280;14177;51.520;6.764;2024-03-02T09:46:42;99952.59;;;14.12
69785;BMP280;14177;51.520;6.764;2024-03-02T09:49:11;99955.75;;;14.32
69785;BMP280;14177;51.520;6.764;2024-03-02T09:51:39;99952.50;;;14.43
69785;BMP280;14177;51.520;6.764;2024-03-02T09:54:10;99947.97;;;14.46
69785;BMP280;14177;51.520;6.764;2024-03-02T09:56:48;99955.81;;;14.74
69785;BMP280;14177;51.520;6.764;2024-03-02T09:59:15;99949.66;;;14.75
69785;BMP280;14177;51.520;6.764;2024-03-02T10:02:00;99947.22;;;14.72
69785;BMP280;14177;51.520;6.764;2024-03-02T10:04:29;99943.41;;;14.63
69785;BMP280;14177;51.520;6.764;2024-03-02T10:07:18;99942.53;;;14.63
69785;BMP280;14177;51.520;6.764;2024-03-02T10:09:48;99945.53;;;14.85
69785;BMP280;14177;51.520;6.764;2024-03-02T10:12:18;99949.28;;;14.95
69785;BMP280;14177;51.520;6.764;2024-03-02T10:14:46;99948.53;;;14.79
69785;BMP280;14177;51.520;6.764;2024-03-02T10:17:17;99947.94;;;14.60
69785;BMP280;14177;51.520;6.764;2024-03-02T10:19:44;99951.72;;;14.84
69785;BMP280;14177;51.520;6.764;2024-03-02T10:22:11;99944.59;;;15.14
69785;BMP280;14177;51.520;6.764;2024-03-02T10:24:41;99940.69;;;15.21
69785;BMP280;14177;51.520;6.764;2024-03-02T10:27:23;99943.56;;;15.16
69785;BMP280;14177;51.520;6.764;2024-03-02T10:29:53;99946.00;;;15.19
69785;BMP280;14177;51.520;6.764;2024-03-02T10:32:22;99950.19;;;15.22
69785;BMP280;14177;51.520;6.764;2024-03-02T10:34:50;99950.03;;;14.83
69785;BMP280;14177;51.520;6.764;2024-03-02T10:37:17;99951.97;;;14.93
69785;BMP280;14177;51.520;6.764;2024-03-02T10:39:46;99953.44;;;15.25
69785;BMP280;14177;51.520;6.764;2024-03-02T10:42:14;99936.13;;;15.51
69785;BMP280;14177;51.520;6.764;2024-03-02T10:44:42;99949.50;;;15.60
69785;BMP280;14177;51.520;6.764;2024-03-02T10:47:12;99941.56;;;15.74
69785;BMP280;14177;51.520;6.764;2024-03-02T10:49:42;99932.19;;;15.84
69785;BMP280;14177;51.520;6.764;2024-03-02T10:52:10;99931.38;;;15.96
69785;BMP280;14177;51.520;6.764;2024-03-02T10:54:37;99932.78;;;16.14
69785;BMP280;14177;51.520;6.764;2024-03-02T10:57:08;99934.03;;;16.08
69785;BMP280;14177;51.520;6.764;2024-03-02T10:59:52;99929.06;;;15.91
69785;BMP280;14177;51.520;6.764;2024-03-02T11:02:21;99910.84;;;15.90
69785;BMP280;14177;51.520;6.764;2024-03-02T11:04:54;99917.59;;;16.19
69785;BMP280;14177;51.520;6.764;2024-03-02T11:07:23;99921.19;;;16.30
69785;BMP280;14177;51.520;6.764;2024-03-02T11:10:01;99906.34;;;16.43
69785;BMP280;14177;51.520;6.764;2024-03-02T11:12:46;99925.09;;;16.37
69785;BMP280;14177;51.520;6.764;2024-03-02T11:15:18;99910.75;;;16.55
69785;BMP280;14177;51.520;6.764;2024-03-02T11:17:48;99909.69;;;16.45
69785;BMP280;14177;51.520;6.764;2024-03-02T11:20:16;99905.91;;;16.49
69785;BMP280;14177;51.520;6.764;2024-03-02T11:22:44;99902.88;;;16.55
69785;BMP280;14177;51.520;6.764;2024-03-02T11:25:27;99892.69;;;16.76
69785;BMP280;14177;51.520;6.764;2024-03-02T11:33:07;99899.47;;;17.03
69785;BMP280;14177;51.520;6.764;2024-03-02T11:35:42;99890.78;;;17.03
69785;BMP280;14177;51.520;6.764;2024-03-02T11:38:10;99895.75;;;17.18
69785;BMP280;14177;51.520;6.764;2024-03-02T11:40:40;99892.59;;;17.38
69785;BMP280;14177;51.520;6.764;2024-03-02T11:43:08;99888.34;;;17.71
69785;BMP280;14177;51.520;6.764;2024-03-02T11:45:36;99886.09;;;17.78
69785;BMP280;14177;51.520;6.764;2024-03-02T11:48:08;99898.94;;;17.70
69785;BMP280;14177;51.520;6.764;2024-03-02T11:50:49;99895.25;;;17.49
69785;BMP280;14177;51.520;6.764;2024-03-02T11:53:18;99895.50;;;17.46
69785;BMP280;14177;51.520;6.764;2024-03-02T11:55:46;99895.69;;;17.07
69785;BMP280;14177;51.520;6.764;2024-03-02T11:58:15;99892.22;;;17.07
69785;BMP280;14177;51.520;6.764;2024-03-02T12:00:47;99882.19;;;17.36
69785;BMP280;14177;51.520;6.764;2024-03-02T12:03:17;99893.03;;;17.32
69785;BMP280;14177;51.520;6.764;2024-03-02T12:05:50;99882.34;;;17.10
69785;BMP280;14177;51.520;6.764;2024-03-02T12:08:17;99881.41;;;17.11
69785;BMP280;14177;51.520;6.764;2024-03-02T12:10:57;99877.06;;;17.35
69785;BMP280;14177;51.520;6.764;2024-03-02T12:13:25;99864.34;;;17.76
69785;BMP280;14177;51.520;6.764;2024-03-02T12:15:54;99864.16;;;17.90
69785;BMP280;14177;51.520;6.764;2024-03-02T12:18:25;99856.88;;;17.82
69785;BMP280;14177;51.520;6.764;2024-03-02T12:20:53;99864.81;;;17.70
69785;BMP280;14177;51.520;6.764;2024-03-02T12:23:24;99859.28;;;17.62
69785;BMP280;14177;51.520;6.764;2024-03-02T12:25:51;99854.69;;;17.53
69785;BMP280;14177;51.520;6.764;2024-03-02T12:28:19;99859.56;;;17.46
69785;BMP280;14177;51.520;6.764;2024-03-02T12:30:46;99859.41;;;17.24
69785;BMP280;14177;51.520;6.764;2024-03-02T12:33:14;99854.00;;;17.15
69785;BMP280;14177;51.520;6.764;2024-03-02T12:35:42;99846.34;;;17.12
69785;BMP280;14177;51.520;6.764;2024-03-02T12:38:09;99855.94;;;16.88
69785;BMP280;14177;51.520;6.764;2024-03-02T12:40:38;99840.47;;;16.73
69785;BMP280;14177;51.520;6.764;2024-03-02T12:43:05;99847.19;;;16.64
69785;BMP280;14177;51.520;6.764;2024-03-02T12:45:35;99841.31;;;16.61
69785;BMP280;14177;51.520;6.764;2024-03-02T12:48:04;99832.06;;;16.68
69785;BMP280;14177;51.520;6.764;2024-03-02T12:50:33;99818.28;;;16.53
69785;BMP280;14177;51.520;6.764;2024-03-02T12:53:04;99819.94;;;16.42
69785;BMP280;14177;51.520;6.764;2024-03-02T12:55:32;99822.28;;;16.34
69785;BMP280;14177;51.520;6.764;2024-03-02T12:58:16;99818.03;;;16.31
69785;BMP280;14177;51.520;6.764;2024-03-02T13:01:32;99815.00;;;16.25
69785;BMP280;14177;51.520;6.764;2024-03-02T13:04:42;99811.13;;;16.30
69785;BMP280;14177;51.520;6.764;2024-03-02T13:07:18;99802.34;;;16.19
69785;BMP280;14177;51.520;6.764;2024-03-02T13:10:00;99814.66;;;16.04
69785;BMP280;14177;51.520;6.764;2024-03-02T13:12:31;99812.91;;;15.92
69785;BMP280;14177;51.520;6.764;2024-03-02T13:15:09;99823.47;;;15.91
69785;BMP280;14177;51.520;6.764;2024-03-02T13:18:12;99809.66;;;15.89
69785;BMP280;14177;51.520;6.764;2024-03-02T13:21:31;99803.06;;;15.96
69785;BMP280;14177;51.520;6.764;2024-03-02T13:24:23;99805.59;;;15.97
69785;BMP280;14177;51.520;6.764;2024-03-02T13:27:11;99796.66;;;15.87
69785;BMP280;14177;51.520;6.764;2024-03-02T13:29:57;99800.03;;;15.89
69785;BMP280;14177;51.520;6.764;2024-03-02T13:32:46;99796.25;;;15.93
69785;BMP280;14177;51.520;6.764;2024-03-02T13:35:16;99798.03;;;15.93
69785;BMP280;14177;51.520;6.764;2024-03-02T13:37:44;99796.66;;;15.87
69785;BMP280;14177;51.520;6.764;2024-03-02T13:40:17;99804.41;;;15.89
69785;BMP280;14177;51.520;6.764;2024-03-02T13:42:49;99799.69;;;15.82
69785;BMP280;14177;51.520;6.764;2024-03-02T13:45:54;99800.41;;;15.71
69785;BMP280;14177;51.520;6.764;2024-03-02T13:49:18;99796.22;;;15.56
69785;BMP280;14177;51.520;6.764;2024-03-02T13:56:19;99789.25;;;15.43
69785;BMP280;14177;51.520;6.764;2024-03-02T13:59:11;99785.81;;;15.42
69785;BMP280;14177;51.520;6.764;2024-03-02T14:01:48;99785.16;;;15.39
69785;BMP280;14177;51.520;6.764;2024-03-02T14:04:28;99782.41;;;15.28
69785;BMP280;14177;51.520;6.764;2024-03-02T14:07:07;99780.75;;;15.27
69785;BMP280;14177;51.520;6.764;2024-03-02T14:09:47;99776.41;;;15.26
69785;BMP280;14177;51.520;6.764;2024-03-02T14:12:18;99782.19;;;15.31
69785;BMP280;14177;51.520;6.764;2024-03-02T14:14:48;99784.41;;;15.37
69785;BMP280;14177;51.520;6.764;2024-03-02T14:17:20;99773.94;;;15.37
69785;BMP280;14177;51.520;6.764;2024-03-02T14:20:01;99776.34;;;15.40
69785;BMP280;14177;51.520;6.764;2024-03-02T14:23:05;99771.31;;;15.37
69785;BMP280;14177;51.520;6.764;2024-03-02T14:25:39;99773.41;;;15.32
69785;BMP280;14177;51.520;6.764;2024-03-02T14:28:28;99768.03;;;15.21
69785;BMP280;14177;51.520;6.764;2024-03-02T14:31:19;99761.50;;;15.14
69785;BMP280;14177;51.520;6.764;2024-03-02T14:33:48;99757.41;;;15.10
69785;BMP280;14177;51.520;6.764;2024-03-02T14:36:17;99757.31;;;15.11
69785;BMP280;14177;51.520;6.764;2024-03-02T14:38:55;99756.44;;;15.25
69785;BMP280;14177;51.520;6.764;2024-03-02T14:41:58;99749.25;;;15.41
69785;BMP280;14177;51.520;6.764;2024-03-02T14:44:27;99749.91;;;15.57
69785;BMP280;14177;51.520;6.764;2024-03-02T14:47:11;99761.56;;;15.90
69785;BMP280;14177;51.520;6.764;2024-03-02T14:50:39;99760.72;;;16.14